createdAt,value
2022-10-06T00:00:00.961Z,13.75
2022-10-06T00:02:28.154Z,13.68
2022-10-06T00:04:54.834Z,13.84
2022-10-06T00:07:21.349Z,13.87
2022-10-06T00:09:47.872Z,13.92
2022-10-06T00:12:14.430Z,13.95
2022-10-06T00:14:41.024Z,13.96
2022-10-06T00:17:07.524Z,14.03
2022-10-06T00:19:33.982Z,14.11
2022-10-06T00:22:00.487Z,14.16
2022-10-06T00:24:27.356Z,14.07
2022-10-06T00:26:53.921Z,14.23
2022-10-06T00:29:20.520Z,14.20
2022-10-06T00:31:47.062Z,14.11
2022-10-06T00:34:13.735Z,14.16
2022-10-06T00:36:40.286Z,14.26
2022-10-06T00:39:07.026Z,14.29
2022-10-06T00:41:33.574Z,14.29
2022-10-06T00:44:00.307Z,14.21
2022-10-06T00:46:34.171Z,14.25
2022-10-06T00:49:08.589Z,14.25
2022-10-06T00:51:39.121Z,14.24
2022-10-06T00:54:05.763Z,14.23
2022-10-06T00:56:32.587Z,14.14
2022-10-06T00:58:59.595Z,14.13
2022-10-06T01:01:27.784Z,14.29
2022-10-06T01:04:00.411Z,14.26
2022-10-06T01:06:26.960Z,14.12
2022-10-06T01:08:53.740Z,14.21
2022-10-06T01:11:20.989Z,14.21
2022-10-06T01:13:47.683Z,14.22
2022-10-06T01:16:17.233Z,14.26
2022-10-06T01:18:47.183Z,14.29
2022-10-06T01:21:28.045Z,14.19
2022-10-06T01:23:57.130Z,14.24
2022-10-06T01:26:24.956Z,14.46
2022-10-06T01:28:51.670Z,14.38
2022-10-06T01:31:18.537Z,14.46
2022-10-06T01:33:45.256Z,14.59
2022-10-06T01:36:11.764Z,14.65
2022-10-06T01:38:38.248Z,14.63
2022-10-06T01:41:04.850Z,14.73
2022-10-06T01:43:31.519Z,14.72
2022-10-06T01:45:59.114Z,14.66
2022-10-06T01:48:26.991Z,14.80
2022-10-06T01:50:54.453Z,14.78
2022-10-06T01:53:22.238Z,14.63
2022-10-06T01:55:48.806Z,14.63
2022-10-06T01:58:16.011Z,14.60
2022-10-06T02:00:42.986Z,14.60
2022-10-06T02:03:09.547Z,14.69
2022-10-06T02:05:36.172Z,14.73
2022-10-06T02:08:04.707Z,14.61
2022-10-06T02:10:31.272Z,14.80
2022-10-06T02:12:57.975Z,14.84
2022-10-06T02:15:26.831Z,14.89
2022-10-06T02:17:54.435Z,14.92
2022-10-06T02:20:21.318Z,14.91
2022-10-06T02:22:47.867Z,14.80
2022-10-06T02:25:14.521Z,14.88
2022-10-06T02:27:41.011Z,14.85
2022-10-06T02:30:08.759Z,14.85
2022-10-06T02:32:37.397Z,14.72
2022-10-06T02:35:04.714Z,14.80
2022-10-06T02:37:31.416Z,14.66
2022-10-06T02:39:57.990Z,14.66
2022-10-06T02:42:24.610Z,14.64
2022-10-06T02:44:52.277Z,14.74
2022-10-06T02:47:22.237Z,14.63
2022-10-06T02:49:48.876Z,14.76
2022-10-06T02:52:15.571Z,14.76
2022-10-06T02:54:42.455Z,14.64
2022-10-06T02:57:09.664Z,14.79
2022-10-06T02:59:36.628Z,14.81
2022-10-06T03:02:03.586Z,14.80
2022-10-06T03:04:30.681Z,14.83
2022-10-06T03:06:57.853Z,14.79
2022-10-06T03:09:25.130Z,14.84
2022-10-06T03:11:51.687Z,14.92
2022-10-06T03:14:21.819Z,14.80
2022-10-06T03:16:50.247Z,14.94
2022-10-06T03:19:16.842Z,14.83
2022-10-06T03:21:44.422Z,14.97
2022-10-06T03:24:11.357Z,14.99
2022-10-06T03:26:43.329Z,15.01
2022-10-06T03:29:11.889Z,15.03
2022-10-06T03:31:40.091Z,15.05
2022-10-06T03:34:07.150Z,15.05
2022-10-06T03:36:34.769Z,15.04
2022-10-06T03:39:02.860Z,14.93
2022-10-06T03:41:31.218Z,14.91
2022-10-06T03:43:59.567Z,15.07
2022-10-06T03:46:28.441Z,15.07
2022-10-06T03:48:57.165Z,15.03
2022-10-06T03:51:36.020Z,15.06
2022-10-06T03:54:03.385Z,14.88
2022-10-06T03:56:30.899Z,15.02
2022-10-06T03:59:03.050Z,14.84
2022-10-06T04:01:38.029Z,14.97
2022-10-06T04:04:05.890Z,14.95
2022-10-06T04:06:36.435Z,14.94
2022-10-06T04:09:03.864Z,14.94
2022-10-06T04:11:33.057Z,14.91
2022-10-06T04:14:01.848Z,14.89
2022-10-06T04:16:33.263Z,14.88
2022-10-06T04:19:03.154Z,14.88
2022-10-06T04:21:31.807Z,14.73
2022-10-06T04:23:59.980Z,14.73
2022-10-06T04:26:30.612Z,14.83
2022-10-06T04:28:57.681Z,14.85
2022-10-06T04:31:26.712Z,14.89
2022-10-06T04:33:58.440Z,14.82
2022-10-06T04:36:30.970Z,14.84
2022-10-06T04:38:59.839Z,14.68
2022-10-06T04:41:28.910Z,14.63
2022-10-06T04:43:55.838Z,14.73
2022-10-06T04:46:42.305Z,14.72
2022-10-06T04:49:14.697Z,14.70
2022-10-06T04:51:45.397Z,14.70
2022-10-06T04:54:12.075Z,14.66
2022-10-06T04:56:38.834Z,14.43
2022-10-06T04:59:05.386Z,14.65
2022-10-06T05:01:34.166Z,14.59
2022-10-06T05:04:02.105Z,14.58
2022-10-06T05:06:31.269Z,14.41
2022-10-06T05:09:00.521Z,14.18
2022-10-06T05:11:27.527Z,14.21
2022-10-06T05:13:55.623Z,14.09
2022-10-06T05:16:23.727Z,13.84
2022-10-06T05:18:50.410Z,13.84
2022-10-06T05:21:19.455Z,13.80
2022-10-06T05:23:46.644Z,13.72
2022-10-06T05:26:21.063Z,13.67
2022-10-06T05:28:47.954Z,13.74
2022-10-06T05:31:16.173Z,13.77
2022-10-06T05:33:43.251Z,13.93
2022-10-06T05:36:15.141Z,14.00
2022-10-06T05:38:42.014Z,13.98
2022-10-06T05:41:12.553Z,13.87
2022-10-06T05:43:39.593Z,13.93
2022-10-06T05:46:10.640Z,13.80
2022-10-06T05:48:37.169Z,13.90
2022-10-06T05:51:09.420Z,13.73
2022-10-06T05:53:37.085Z,13.84
2022-10-06T05:56:08.018Z,13.79
2022-10-06T05:58:36.321Z,13.77
2022-10-06T06:01:11.461Z,13.66
2022-10-06T06:03:38.925Z,13.86
2022-10-06T06:06:24.685Z,13.73
2022-10-06T06:08:59.899Z,13.65
2022-10-06T06:11:28.020Z,13.73
2022-10-06T06:14:02.639Z,13.66
2022-10-06T06:16:32.995Z,13.64
2022-10-06T06:19:00.985Z,13.66
2022-10-06T06:21:28.560Z,13.66
2022-10-06T06:23:55.593Z,13.53
2022-10-06T06:26:27.284Z,13.50
2022-10-06T06:28:56.486Z,13.63
2022-10-06T06:31:27.155Z,13.62
2022-10-06T06:33:56.566Z,13.65
2022-10-06T06:36:28.414Z,13.65
2022-10-06T06:38:57.357Z,13.69
2022-10-06T06:41:24.885Z,13.54
2022-10-06T06:43:55.384Z,13.66
2022-10-06T06:46:25.197Z,13.65
2022-10-06T06:48:56.058Z,13.81
2022-10-06T06:51:24.203Z,13.77
2022-10-06T06:53:52.288Z,14.00
2022-10-06T06:56:21.287Z,13.98
2022-10-06T06:58:48.209Z,14.33
2022-10-06T07:01:17.240Z,14.50
2022-10-06T07:04:02.350Z,14.65
2022-10-06T07:06:30.416Z,14.85
2022-10-06T07:08:58.993Z,14.87
2022-10-06T07:11:33.957Z,15.13
2022-10-06T07:14:03.245Z,15.28
2022-10-06T07:16:49.791Z,15.37
2022-10-06T07:19:37.468Z,15.56
2022-10-06T07:22:25.912Z,15.61
2022-10-06T07:25:11.628Z,15.87
2022-10-06T07:27:46.897Z,15.73
2022-10-06T07:30:19.678Z,15.57
2022-10-06T07:32:50.640Z,15.67
2022-10-06T07:35:20.401Z,15.81
2022-10-06T07:37:47.460Z,15.67
2022-10-06T07:40:17.859Z,15.77
2022-10-06T07:42:52.041Z,15.89
2022-10-06T07:45:41.018Z,15.86
2022-10-06T07:48:14.521Z,15.78
2022-10-06T07:50:42.675Z,15.78
2022-10-06T07:53:09.313Z,15.73
2022-10-06T07:55:40.359Z,15.69
2022-10-06T07:58:14.975Z,15.65
2022-10-06T08:00:42.833Z,15.64
2022-10-06T08:03:10.907Z,15.62
2022-10-06T08:05:39.284Z,15.42
2022-10-06T08:08:06.569Z,15.43
2022-10-06T08:10:33.069Z,15.43
2022-10-06T08:13:01.242Z,15.44
2022-10-06T08:15:27.982Z,15.19
2022-10-06T08:17:54.495Z,15.36
2022-10-06T08:20:21.566Z,15.29
2022-10-06T08:22:48.289Z,15.25
2022-10-06T08:25:15.303Z,15.13
2022-10-06T08:27:44.150Z,15.03
2022-10-06T08:30:12.005Z,14.99
2022-10-06T08:32:39.185Z,14.91
2022-10-06T08:35:05.792Z,14.90
2022-10-06T08:37:32.419Z,14.95
2022-10-06T08:39:58.938Z,15.09
2022-10-06T08:42:43.406Z,15.23
2022-10-06T08:45:17.183Z,15.20
2022-10-06T08:48:09.967Z,15.38
2022-10-06T08:51:00.342Z,15.33
2022-10-06T08:53:48.510Z,15.25
2022-10-06T08:56:31.345Z,15.50
2022-10-06T08:59:04.286Z,15.53
2022-10-06T09:01:41.624Z,15.41
2022-10-06T09:04:15.936Z,15.61
2022-10-06T09:06:52.068Z,15.66
2022-10-06T09:09:34.983Z,15.75
2022-10-06T09:12:30.717Z,15.85
2022-10-06T09:15:17.513Z,16.01
2022-10-06T09:17:57.060Z,16.13
2022-10-06T09:20:34.147Z,16.33
2022-10-06T09:23:04.290Z,16.56
2022-10-06T09:25:30.936Z,16.54
2022-10-06T09:28:00.844Z,16.52
2022-10-06T09:30:27.741Z,16.50
2022-10-06T09:33:03.460Z,16.69
2022-10-06T09:35:31.948Z,16.75
2022-10-06T09:38:08.184Z,16.65
2022-10-06T09:40:46.137Z,16.85
2022-10-06T09:43:27.786Z,16.92
2022-10-06T09:45:55.959Z,16.87
2022-10-06T09:48:25.545Z,16.88
2022-10-06T09:51:17.312Z,16.67
2022-10-06T09:54:02.894Z,16.60
2022-10-06T09:56:29.863Z,16.72
2022-10-06T09:58:58.911Z,16.72
2022-10-06T10:01:28.654Z,17.07
2022-10-06T10:04:20.585Z,17.14
2022-10-06T10:06:47.104Z,16.95
2022-10-06T10:09:23.750Z,16.95
2022-10-06T10:12:24.489Z,16.88
2022-10-06T10:14:51.893Z,16.80
2022-10-06T10:17:35.467Z,16.86
2022-10-06T10:20:03.215Z,16.79
2022-10-06T10:22:34.885Z,16.64
2022-10-06T10:25:07.269Z,16.85
2022-10-06T10:27:45.750Z,16.89
2022-10-06T10:30:14.868Z,17.24
2022-10-06T10:33:12.090Z,17.42
2022-10-06T10:35:51.513Z,17.59
2022-10-06T10:38:26.922Z,17.72
2022-10-06T10:41:07.303Z,17.64
2022-10-06T10:43:34.726Z,17.58
2022-10-06T10:46:12.302Z,17.39
2022-10-06T10:49:14.123Z,17.47
2022-10-06T10:52:15.494Z,17.61
2022-10-06T10:54:48.237Z,17.69
2022-10-06T10:57:28.465Z,17.78
2022-10-06T11:00:01.464Z,17.98
2022-10-06T11:02:28.751Z,17.86
2022-10-06T11:05:03.935Z,17.78
2022-10-06T11:07:58.326Z,17.82
2022-10-06T11:10:41.071Z,17.89
2022-10-06T11:13:14.966Z,17.68
2022-10-06T11:15:48.421Z,17.48
2022-10-06T11:18:30.238Z,17.68
2022-10-06T11:21:11.582Z,17.84
2022-10-06T11:23:44.970Z,17.94
2022-10-06T11:26:35.959Z,18.11
2022-10-06T11:29:26.941Z,18.22
2022-10-06T11:32:12.245Z,18.35
2022-10-06T11:34:40.794Z,18.41
2022-10-06T11:37:28.822Z,18.41
2022-10-06T11:40:36.875Z,18.30
2022-10-06T11:43:09.498Z,18.04
2022-10-06T11:45:55.005Z,17.81
2022-10-06T11:48:32.218Z,17.75
2022-10-06T11:51:17.535Z,17.76
2022-10-06T11:53:45.548Z,17.86
2022-10-06T11:56:18.186Z,17.82
2022-10-06T11:58:56.654Z,17.69
2022-10-06T12:01:36.404Z,17.77
2022-10-06T12:04:05.426Z,17.78
2022-10-06T12:06:53.216Z,17.66
2022-10-06T12:09:26.371Z,17.71
2022-10-06T12:11:53.910Z,17.75
2022-10-06T12:17:37.704Z,18.16
2022-10-06T12:20:19.208Z,18.39
2022-10-06T12:23:01.847Z,18.33
2022-10-06T12:25:54.066Z,18.22
2022-10-06T12:28:44.450Z,18.07
2022-10-06T12:31:39.749Z,18.22
2022-10-06T12:34:43.853Z,18.22
2022-10-06T12:37:28.616Z,18.35
2022-10-06T12:40:32.732Z,18.55
2022-10-06T12:43:23.360Z,18.63
2022-10-06T12:45:56.057Z,18.52
2022-10-06T12:48:51.888Z,18.47
2022-10-06T12:51:36.292Z,18.49
2022-10-06T12:54:12.057Z,18.37
2022-10-06T12:56:40.891Z,18.52
2022-10-06T12:59:32.107Z,18.52
2022-10-06T13:02:02.820Z,18.69
2022-10-06T13:04:49.112Z,18.91
2022-10-06T13:07:22.379Z,18.82
2022-10-06T13:09:52.351Z,18.72
2022-10-06T13:12:24.108Z,18.71
2022-10-06T13:15:12.685Z,18.74
2022-10-06T13:17:42.930Z,18.93
2022-10-06T13:20:20.709Z,18.96
2022-10-06T13:22:56.018Z,18.85
2022-10-06T13:25:22.519Z,18.92
2022-10-06T13:27:51.835Z,18.90
2022-10-06T13:30:22.475Z,18.82
2022-10-06T13:32:53.649Z,18.83
2022-10-06T13:35:24.669Z,18.55
2022-10-06T13:37:55.415Z,18.33
2022-10-06T13:40:43.992Z,18.22
2022-10-06T13:43:19.210Z,18.07
2022-10-06T13:45:48.368Z,18.12
2022-10-06T13:48:21.170Z,18.18
2022-10-06T13:50:49.359Z,18.25
2022-10-06T13:53:31.422Z,18.20
2022-10-06T13:55:59.018Z,18.47
2022-10-06T13:58:27.943Z,18.35
2022-10-06T14:01:00.826Z,18.42
2022-10-06T14:03:29.439Z,18.46
2022-10-06T14:06:16.970Z,18.30
2022-10-06T14:08:54.831Z,18.13
2022-10-06T14:11:24.806Z,18.07
2022-10-06T14:14:03.024Z,18.10
2022-10-06T14:16:29.791Z,18.12
2022-10-06T14:19:00.078Z,18.17
2022-10-06T14:21:30.114Z,18.17
2022-10-06T14:23:56.761Z,18.19
2022-10-06T14:26:27.057Z,18.18
2022-10-06T14:28:53.978Z,18.08
2022-10-06T14:31:21.907Z,18.23
2022-10-06T14:33:53.442Z,18.21
2022-10-06T14:36:27.344Z,18.46
2022-10-06T14:38:55.649Z,18.88
2022-10-06T14:41:30.356Z,19.75
2022-10-06T14:44:01.410Z,20.36
2022-10-06T14:46:29.172Z,19.85
2022-10-06T14:48:56.019Z,18.93
2022-10-06T14:51:24.576Z,18.41
2022-10-06T14:53:54.835Z,18.19
2022-10-06T14:56:23.347Z,18.06
2022-10-06T14:58:51.316Z,17.88
2022-10-06T15:01:21.209Z,17.88
2022-10-06T15:03:59.690Z,17.73
2022-10-06T15:06:46.498Z,17.71
2022-10-06T15:09:13.284Z,17.67
2022-10-06T15:11:40.483Z,17.66
2022-10-06T15:14:10.435Z,17.71
2022-10-06T15:16:40.603Z,17.62
2022-10-06T15:19:07.219Z,17.51
2022-10-06T15:21:34.248Z,17.45
2022-10-06T15:24:04.384Z,17.31
2022-10-06T15:26:50.500Z,17.33
2022-10-06T15:29:17.881Z,17.31
2022-10-06T15:31:53.079Z,17.24
2022-10-06T15:34:23.713Z,17.23
2022-10-06T15:36:52.420Z,17.34
2022-10-06T15:39:21.645Z,17.19
2022-10-06T15:41:48.718Z,17.28
2022-10-06T15:44:16.503Z,17.23
2022-10-06T15:46:45.427Z,17.20
2022-10-06T15:49:19.996Z,17.15
2022-10-06T15:51:52.232Z,17.11
2022-10-06T15:54:24.168Z,17.06
2022-10-06T15:56:59.406Z,16.87
2022-10-06T15:59:27.517Z,16.84
2022-10-06T16:01:57.182Z,16.81
2022-10-06T16:04:48.199Z,16.55
2022-10-06T16:07:19.687Z,16.74
2022-10-06T16:09:48.761Z,16.71
2022-10-06T16:12:18.293Z,16.55
2022-10-06T16:14:45.204Z,16.50
2022-10-06T16:17:12.430Z,16.59
2022-10-06T16:19:40.289Z,16.61
2022-10-06T16:22:10.986Z,16.56
2022-10-06T16:24:37.568Z,16.53
2022-10-06T16:27:04.513Z,16.44
2022-10-06T16:29:31.197Z,16.50
2022-10-06T16:31:59.103Z,16.47
2022-10-06T16:34:25.630Z,16.42
2022-10-06T16:36:52.348Z,16.34
2022-10-06T16:39:21.534Z,16.19
2022-10-06T16:41:49.366Z,16.09
2022-10-06T16:44:16.327Z,16.11
2022-10-06T16:46:43.260Z,16.14
2022-10-06T16:49:10.184Z,16.07
2022-10-06T16:51:48.380Z,16.01
2022-10-06T16:54:17.392Z,15.95
2022-10-06T16:56:52.501Z,15.88
2022-10-06T16:59:20.931Z,15.77
2022-10-06T17:01:49.024Z,15.73
2022-10-06T17:04:25.495Z,15.63
2022-10-06T17:06:54.910Z,15.52
2022-10-06T17:09:23.571Z,15.42
2022-10-06T17:11:52.691Z,15.22
2022-10-06T17:14:20.026Z,15.26
2022-10-06T17:16:48.562Z,15.12
2022-10-06T17:19:16.930Z,15.08
2022-10-06T17:21:46.766Z,15.03
2022-10-06T17:24:14.924Z,14.96
2022-10-06T17:26:43.752Z,14.89
2022-10-06T17:29:16.945Z,14.87
2022-10-06T17:31:43.721Z,14.79
2022-10-06T17:34:21.244Z,14.69
2022-10-06T17:36:50.935Z,14.46
2022-10-06T17:39:20.335Z,14.41
2022-10-06T17:41:48.084Z,14.43
2022-10-06T17:44:18.841Z,14.22
2022-10-06T17:46:45.667Z,14.28
2022-10-06T17:49:15.659Z,14.23
2022-10-06T17:51:45.374Z,14.09
2022-10-06T17:54:16.403Z,14.09
2022-10-06T17:56:44.048Z,13.94
2022-10-06T17:59:20.022Z,13.98
2022-10-06T18:01:46.765Z,13.76
2022-10-06T18:04:17.591Z,13.82
2022-10-06T18:06:46.385Z,13.77
2022-10-06T18:09:14.587Z,13.73
2022-10-06T18:11:43.907Z,13.64
2022-10-06T18:14:19.640Z,13.57
2022-10-06T18:16:55.911Z,13.53
2022-10-06T18:19:33.562Z,13.45
2022-10-06T18:22:03.338Z,13.36
2022-10-06T18:24:31.455Z,13.26
2022-10-06T18:27:00.315Z,13.20
2022-10-06T18:29:32.898Z,13.17
2022-10-06T18:32:27.241Z,13.18
2022-10-06T18:37:34.378Z,12.98
2022-10-06T18:40:05.249Z,12.93
2022-10-06T18:42:31.796Z,12.90
2022-10-06T18:45:16.974Z,12.88
2022-10-06T18:48:01.939Z,12.59
2022-10-06T18:50:28.476Z,12.67
2022-10-06T18:52:56.939Z,12.52
2022-10-06T18:55:23.507Z,12.62
2022-10-06T18:57:50.521Z,12.52
2022-10-06T19:00:17.690Z,12.33
2022-10-06T19:02:48.291Z,12.39
2022-10-06T19:05:17.290Z,12.06
2022-10-06T19:07:44.768Z,12.29
2022-10-06T19:10:11.885Z,12.33
2022-10-06T19:12:38.522Z,12.38
2022-10-06T19:15:05.723Z,12.38
2022-10-06T19:17:32.636Z,12.34
2022-10-06T19:19:59.370Z,12.37
2022-10-06T19:22:25.982Z,12.30
2022-10-06T19:24:52.984Z,12.09
2022-10-06T19:27:24.378Z,12.02
2022-10-06T19:29:56.627Z,11.94
2022-10-06T19:32:26.703Z,11.81
2022-10-06T19:34:57.980Z,11.78
2022-10-06T19:37:27.140Z,11.73
2022-10-06T19:39:53.945Z,11.77
2022-10-06T19:42:39.891Z,11.72
2022-10-06T19:45:07.986Z,11.68
2022-10-06T19:47:34.556Z,11.73
2022-10-06T19:50:05.959Z,11.64
2022-10-06T19:52:37.039Z,11.49
2022-10-06T19:55:04.224Z,11.49
2022-10-06T19:57:32.603Z,11.46
2022-10-06T19:59:59.235Z,11.42
2022-10-06T20:02:25.942Z,11.57
2022-10-06T20:04:52.472Z,11.53
2022-10-06T20:07:21.803Z,11.50
2022-10-06T20:09:48.678Z,11.43
2022-10-06T20:12:17.837Z,11.48
2022-10-06T20:14:47.781Z,11.32
2022-10-06T20:17:14.412Z,11.37
2022-10-06T20:19:41.057Z,11.33
2022-10-06T20:22:07.638Z,11.23
2022-10-06T20:24:35.289Z,11.14
2022-10-06T20:27:01.900Z,11.13
2022-10-06T20:29:28.773Z,11.09
2022-10-06T20:31:59.522Z,11.10
2022-10-06T20:34:32.293Z,11.09
2022-10-06T20:37:01.909Z,11.06
2022-10-06T20:39:49.369Z,11.02
2022-10-06T20:42:16.675Z,10.88
2022-10-06T20:44:44.345Z,10.97
2022-10-06T20:47:13.209Z,10.81
2022-10-06T20:49:42.243Z,10.77
2022-10-06T20:52:09.927Z,10.82
2022-10-06T20:54:37.387Z,10.68
2022-10-06T20:57:06.269Z,10.63
2022-10-06T20:59:35.483Z,10.51
2022-10-06T21:02:02.908Z,10.35
2022-10-06T21:04:30.551Z,10.45
2022-10-06T21:06:57.802Z,10.58
2022-10-06T21:09:25.032Z,10.58
2022-10-06T21:11:52.581Z,10.45
2022-10-06T21:14:19.980Z,10.38
2022-10-06T21:16:48.052Z,10.30
2022-10-06T21:19:19.391Z,10.21
2022-10-06T21:21:52.395Z,10.23
2022-10-06T21:24:20.773Z,10.24
2022-10-06T21:26:48.137Z,10.17
2022-10-06T21:29:15.667Z,10.17
2022-10-06T21:31:43.558Z,10.13
2022-10-06T21:34:10.625Z,9.94
2022-10-06T21:36:37.385Z,10.04
2022-10-06T21:39:07.303Z,10.01
2022-10-06T21:41:39.093Z,9.94
2022-10-06T21:44:10.261Z,10.04
2022-10-06T21:46:40.929Z,10.05
2022-10-06T21:49:09.994Z,10.03
2022-10-06T21:51:37.245Z,10.02
2022-10-06T21:54:05.003Z,9.95
2022-10-06T21:56:33.437Z,9.85
2022-10-06T21:59:00.881Z,9.64
2022-10-06T22:01:39.545Z,9.63
2022-10-06T22:04:06.611Z,9.60
2022-10-06T22:06:36.218Z,9.66
2022-10-06T22:09:04.972Z,9.48
2022-10-06T22:11:35.262Z,9.58
2022-10-06T22:14:05.243Z,9.53
2022-10-06T22:16:34.574Z,9.48
2022-10-06T22:19:03.611Z,9.43
2022-10-06T22:21:34.677Z,9.39
2022-10-06T22:24:09.719Z,9.30
2022-10-06T22:26:38.552Z,9.28
2022-10-06T22:29:08.109Z,9.34
2022-10-06T22:31:36.905Z,9.35
2022-10-06T22:34:06.844Z,9.29
2022-10-06T22:36:34.780Z,9.23
2022-10-06T22:39:02.082Z,9.16
2022-10-06T22:41:29.431Z,9.13
2022-10-06T22:43:57.945Z,9.09
2022-10-06T22:46:29.382Z,9.03
2022-10-06T22:48:56.726Z,9.03
2022-10-06T22:51:23.770Z,9.10
2022-10-06T22:53:58.950Z,9.14
2022-10-06T22:56:31.741Z,9.27
2022-10-06T22:59:00.057Z,9.22
2022-10-06T23:01:28.344Z,9.17
2022-10-06T23:03:55.748Z,8.92
2022-10-06T23:06:22.586Z,8.86
2022-10-06T23:08:49.233Z,8.93
2022-10-06T23:11:18.423Z,8.84
2022-10-06T23:13:45.587Z,8.68
2022-10-06T23:16:14.776Z,8.90
2022-10-06T23:18:42.963Z,8.93
2022-10-06T23:21:19.413Z,8.91
2022-10-06T23:23:46.775Z,8.91
2022-10-06T23:26:15.300Z,8.78
2022-10-06T23:28:42.741Z,8.79
2022-10-06T23:31:10.603Z,8.88
2022-10-06T23:33:37.673Z,8.91
2022-10-06T23:36:09.870Z,8.89
2022-10-06T23:38:37.610Z,8.88
2022-10-06T23:41:05.018Z,8.84
2022-10-06T23:43:31.779Z,8.88
2022-10-06T23:45:58.492Z,8.91
2022-10-06T23:48:25.494Z,8.74
2022-10-06T23:51:00.537Z,8.62
2022-10-06T23:53:27.848Z,8.63
2022-10-06T23:55:54.967Z,8.55
2022-10-06T23:58:22.756Z,8.51
